sensor_id;sensor_type;location;lat;lon;timestamp;pressure;altitude;pressure_sealevel;temperature;humidity
74372;BME280;62885;51.374;6.170;2023-04-24T00:00:14;99767.16;;;10.64;85.04
74372;BME280;62885;51.374;6.170;2023-04-24T00:02:41;99767.84;;;10.66;85.47
74372;BME280;62885;51.374;6.170;2023-04-24T00:05:10;99764.91;;;10.59;85.99
74372;BME280;62885;51.374;6.170;2023-04-24T00:07:35;99764.47;;;10.64;85.84
74372;BME280;62885;51.374;6.170;2023-04-24T00:10:01;99777.16;;;10.72;86.39
74372;BME280;62885;51.374;6.170;2023-04-24T00:12:26;99763.78;;;10.72;85.58
74372;BME280;62885;51.374;6.170;2023-04-24T00:14:52;99768.97;;;10.63;85.54
74372;BME280;62885;51.374;6.170;2023-04-24T00:17:18;99776.84;;;10.55;84.77
74372;BME280;62885;51.374;6.170;2023-04-24T00:19:48;99777.81;;;10.54;84.77
74372;BME280;62885;51.374;6.170;2023-04-24T00:22:16;99786.72;;;10.55;84.44
74372;BME280;62885;51.374;6.170;2023-04-24T00:24:41;99779.94;;;10.51;84.19
74372;BME280;62885;51.374;6.170;2023-04-24T00:27:06;99783.91;;;10.47;84.04
74372;BME280;62885;51.374;6.170;2023-04-24T00:29:32;99779.94;;;10.41;84.37
74372;BME280;62885;51.374;6.170;2023-04-24T00:31:57;99783.72;;;10.39;83.93
74372;BME280;62885;51.374;6.170;2023-04-24T00:34:23;99795.41;;;10.38;84.26
74372;BME280;62885;51.374;6.170;2023-04-24T00:36:48;99778.38;;;10.29;84.49
74372;BME280;62885;51.374;6.170;2023-04-24T00:39:20;99788.94;;;10.31;84.79
74372;BME280;62885;51.374;6.170;2023-04-24T00:41:47;99791.03;;;10.27;84.35
74372;BME280;62885;51.374;6.170;2023-04-24T00:44:13;99784.88;;;10.36;84.26
74372;BME280;62885;51.374;6.170;2023-04-24T00:46:39;99780.75;;;10.32;84.41
74372;BME280;62885;51.374;6.170;2023-04-24T00:49:05;99780.75;;;10.22;84.32
74372;BME280;62885;51.374;6.170;2023-04-24T00:51:31;99771.16;;;10.20;84.28
74372;BME280;62885;51.374;6.170;2023-04-24T00:53:58;99779.69;;;10.14;84.49
74372;BME280;62885;51.374;6.170;2023-04-24T00:56:23;99771.31;;;10.18;84.39
74372;BME280;62885;51.374;6.170;2023-04-24T00:58:49;99781.28;;;10.16;84.71
74372;BME280;62885;51.374;6.170;2023-04-24T01:01:15;99763.81;;;10.12;84.40
74372;BME280;62885;51.374;6.170;2023-04-24T01:03:41;99772.50;;;10.14;84.87
74372;BME280;62885;51.374;6.170;2023-04-24T01:06:07;99774.75;;;10.09;84.80
74372;BME280;62885;51.374;6.170;2023-04-24T01:08:34;99781.50;;;10.13;84.41
74372;BME280;62885;51.374;6.170;2023-04-24T01:11:03;99773.91;;;10.09;85.03
74372;BME280;62885;51.374;6.170;2023-04-24T01:13:29;99774.31;;;10.04;84.27
74372;BME280;62885;51.374;6.170;2023-04-24T01:15:56;99776.16;;;10.13;84.41
74372;BME280;62885;51.374;6.170;2023-04-24T01:18:22;99772.94;;;10.10;84.69
74372;BME280;62885;51.374;6.170;2023-04-24T01:20:51;99772.75;;;10.02;84.45
74372;BME280;62885;51.374;6.170;2023-04-24T01:23:18;99773.16;;;9.97;85.04
74372;BME280;62885;51.374;6.170;2023-04-24T01:25:43;99773.16;;;9.97;85.02
74372;BME280;62885;51.374;6.170;2023-04-24T01:28:09;99774.75;;;10.00;85.61
74372;BME280;62885;51.374;6.170;2023-04-24T01:30:35;99766.47;;;10.12;85.32
74372;BME280;62885;51.374;6.170;2023-04-24T01:33:01;99763.63;;;10.14;84.56
74372;BME280;62885;51.374;6.170;2023-04-24T01:35:26;99771.66;;;10.04;85.07
74372;BME280;62885;51.374;6.170;2023-04-24T01:37:52;99769.81;;;10.05;84.93
74372;BME280;62885;51.374;6.170;2023-04-24T01:40:17;99776.28;;;10.02;85.49
74372;BME280;62885;51.374;6.170;2023-04-24T01:42:43;99771.22;;;9.99;85.42
74372;BME280;62885;51.374;6.170;2023-04-24T01:45:11;99771.94;;;10.01;85.99
74372;BME280;62885;51.374;6.170;2023-04-24T01:47:36;99765.75;;;10.01;86.20
74372;BME280;62885;51.374;6.170;2023-04-24T01:50:02;99767.69;;;9.99;86.37
74372;BME280;62885;51.374;6.170;2023-04-24T01:52:28;99764.16;;;9.98;86.44
74372;BME280;62885;51.374;6.170;2023-04-24T01:54:56;99766.72;;;10.00;86.30
74372;BME280;62885;51.374;6.170;2023-04-24T01:57:24;99767.13;;;9.95;86.68
74372;BME280;62885;51.374;6.170;2023-04-24T01:59:50;99767.13;;;9.95;87.20
74372;BME280;62885;51.374;6.170;2023-04-24T02:02:16;99760.34;;;9.91;86.97
74372;BME280;62885;51.374;6.170;2023-04-24T02:04:41;99767.13;;;9.95;87.36
74372;BME280;62885;51.374;6.170;2023-04-24T02:07:06;99764.00;;;9.90;87.08
74372;BME280;62885;51.374;6.170;2023-04-24T02:09:33;99762.66;;;10.05;87.41
74372;BME280;62885;51.374;6.170;2023-04-24T02:11:58;99758.94;;;9.97;86.76
74372;BME280;62885;51.374;6.170;2023-04-24T02:14:23;99765.56;;;9.93;86.62
74372;BME280;62885;51.374;6.170;2023-04-24T02:16:49;99762.44;;;9.87;86.99
74372;BME280;62885;51.374;6.170;2023-04-24T02:19:14;99767.97;;;9.96;86.95
74372;BME280;62885;51.374;6.170;2023-04-24T02:21:40;99764.72;;;9.92;86.85
74372;BME280;62885;51.374;6.170;2023-04-24T02:24:05;99763.88;;;9.92;87.16
74372;BME280;62885;51.374;6.170;2023-04-24T02:26:31;99762.88;;;9.93;86.83
74372;BME280;62885;51.374;6.170;2023-04-24T02:28:57;99772.19;;;9.98;86.89
74372;BME280;62885;51.374;6.170;2023-04-24T02:31:22;99772.16;;;9.88;87.60
74372;BME280;62885;51.374;6.170;2023-04-24T02:33:48;99772.91;;;10.00;87.81
74372;BME280;62885;51.374;6.170;2023-04-24T02:36:14;99776.00;;;9.96;87.64
74372;BME280;62885;51.374;6.170;2023-04-24T02:38:39;99775.28;;;9.94;87.94
74372;BME280;62885;51.374;6.170;2023-04-24T02:41:05;99765.56;;;9.93;87.95
74372;BME280;62885;51.374;6.170;2023-04-24T02:43:32;99759.66;;;9.89;87.60
74372;BME280;62885;51.374;6.170;2023-04-24T02:45:57;99761.31;;;9.90;87.79
74372;BME280;62885;51.374;6.170;2023-04-24T02:48:23;99772.84;;;9.90;87.89
74372;BME280;62885;51.374;6.170;2023-04-24T02:50:48;99767.91;;;9.86;88.09
74372;BME280;62885;51.374;6.170;2023-04-24T02:53:14;99763.44;;;9.86;87.47
74372;BME280;62885;51.374;6.170;2023-04-24T02:55:39;99765.97;;;9.88;87.77
74372;BME280;62885;51.374;6.170;2023-04-24T02:58:05;99774.56;;;9.92;87.56
74372;BME280;62885;51.374;6.170;2023-04-24T03:00:31;99775.53;;;9.90;87.33
74372;BME280;62885;51.374;6.170;2023-04-24T03:02:56;99773.16;;;9.87;87.46
74372;BME280;62885;51.374;6.170;2023-04-24T03:05:22;99772.28;;;9.87;88.37
74372;BME280;62885;51.374;6.170;2023-04-24T03:07:47;99775.38;;;9.82;88.25
74372;BME280;62885;51.374;6.170;2023-04-24T03:10:12;99778.63;;;9.86;88.23
74372;BME280;62885;51.374;6.170;2023-04-24T03:12:38;99776.06;;;9.84;88.02
74372;BME280;62885;51.374;6.170;2023-04-24T03:15:03;99777.19;;;9.82;87.50
74372;BME280;62885;51.374;6.170;2023-04-24T03:17:29;99780.44;;;9.85;87.04
74372;BME280;62885;51.374;6.170;2023-04-24T03:19:55;99775.94;;;9.86;87.75
74372;BME280;62885;51.374;6.170;2023-04-24T03:22:20;99779.34;;;9.88;87.41
74372;BME280;62885;51.374;6.170;2023-04-24T03:24:45;99778.63;;;9.86;87.22
74372;BME280;62885;51.374;6.170;2023-04-24T03:27:11;99786.63;;;9.86;88.04
74372;BME280;62885;51.374;6.170;2023-04-24T03:29:36;99784.94;;;9.85;87.24
74372;BME280;62885;51.374;6.170;2023-04-24T03:32:01;99775.25;;;9.84;86.93
74372;BME280;62885;51.374;6.170;2023-04-24T03:34:27;99782.09;;;9.77;87.41
74372;BME280;62885;51.374;6.170;2023-04-24T03:36:53;99773.28;;;9.86;86.85
74372;BME280;62885;51.374;6.170;2023-04-24T03:39:18;99776.34;;;9.81;86.67
74372;BME280;62885;51.374;6.170;2023-04-24T03:41:44;99775.06;;;9.76;86.88
74372;BME280;62885;51.374;6.170;2023-04-24T03:44:09;99775.53;;;9.90;86.70
74372;BME280;62885;51.374;6.170;2023-04-24T03:46:34;99779.88;;;9.82;86.67
74372;BME280;62885;51.374;6.170;2023-04-24T03:49:00;99773.81;;;9.80;86.31
74372;BME280;62885;51.374;6.170;2023-04-24T03:51:25;99773.03;;;9.89;86.08
74372;BME280;62885;51.374;6.170;2023-04-24T03:53:53;99780.13;;;9.79;86.39
74372;BME280;62885;51.374;6.170;2023-04-24T03:56:18;99779.44;;;9.77;86.25
74372;BME280;62885;51.374;6.170;2023-04-24T03:58:44;99783.34;;;9.73;86.68
74372;BME280;62885;51.374;6.170;2023-04-24T04:01:10;99787.16;;;9.80;86.19
74372;BME280;62885;51.374;6.170;2023-04-24T04:03:36;99778.84;;;9.73;86.42
74372;BME280;62885;51.374;6.170;2023-04-24T04:06:02;99794.31;;;9.70;86.33
74372;BME280;62885;51.374;6.170;2023-04-24T04:08:27;99785.44;;;9.69;86.20
74372;BME280;62885;51.374;6.170;2023-04-24T04:10:52;99788.22;;;9.58;86.71
74372;BME280;62885;51.374;6.170;2023-04-24T04:13:18;99791.44;;;9.62;86.98
74372;BME280;62885;51.374;6.170;2023-04-24T04:15:43;99792.75;;;9.67;87.12
74372;BME280;62885;51.374;6.170;2023-04-24T04:18:09;99791.84;;;9.57;86.70
74372;BME280;62885;51.374;6.170;2023-04-24T04:20:34;99796.34;;;9.57;87.27
74372;BME280;62885;51.374;6.170;2023-04-24T04:23:00;99794.97;;;9.62;86.89
74372;BME280;62885;51.374;6.170;2023-04-24T04:25:25;99793.53;;;9.58;86.89
74372;BME280;62885;51.374;6.170;2023-04-24T04:27:50;99791.41;;;9.52;87.04
74372;BME280;62885;51.374;6.170;2023-04-24T04:30:16;99796.31;;;9.47;86.59
74372;BME280;62885;51.374;6.170;2023-04-24T04:32:43;99800.69;;;9.48;86.31
74372;BME280;62885;51.374;6.170;2023-04-24T04:35:08;99798.84;;;9.48;86.11
74372;BME280;62885;51.374;6.170;2023-04-24T04:37:34;99794.72;;;9.44;87.13
74372;BME280;62885;51.374;6.170;2023-04-24T04:40:00;99803.03;;;9.41;87.06
74372;BME280;62885;51.374;6.170;2023-04-24T04:42:26;99806.22;;;9.35;87.87
74372;BME280;62885;51.374;6.170;2023-04-24T04:44:54;99813.59;;;9.43;88.16
74372;BME280;62885;51.374;6.170;2023-04-24T04:47:21;99809.28;;;9.31;88.42
74372;BME280;62885;51.374;6.170;2023-04-24T04:49:50;99806.84;;;9.28;89.54
74372;BME280;62885;51.374;6.170;2023-04-24T04:52:18;99817.88;;;9.34;88.53
74372;BME280;62885;51.374;6.170;2023-04-24T04:54:44;99809.34;;;9.40;89.03
74372;BME280;62885;51.374;6.170;2023-04-24T04:57:10;99804.19;;;9.28;89.28
74372;BME280;62885;51.374;6.170;2023-04-24T04:59:35;99807.72;;;9.28;89.28
74372;BME280;62885;51.374;6.170;2023-04-24T05:02:01;99805.56;;;9.22;89.96
74372;BME280;62885;51.374;6.170;2023-04-24T05:04:26;99816.69;;;9.27;90.27
74372;BME280;62885;51.374;6.170;2023-04-24T05:06:52;99806.72;;;9.29;91.05
74372;BME280;62885;51.374;6.170;2023-04-24T05:09:17;99816.50;;;9.19;91.30
74372;BME280;62885;51.374;6.170;2023-04-24T05:11:43;99808.63;;;9.18;92.30
74372;BME280;62885;51.374;6.170;2023-04-24T05:14:08;99813.63;;;9.11;93.20
74372;BME280;62885;51.374;6.170;2023-04-24T05:16:34;99819.81;;;9.12;93.29
74372;BME280;62885;51.374;6.170;2023-04-24T05:18:59;99810.22;;;9.09;93.37
74372;BME280;62885;51.374;6.170;2023-04-24T05:21:25;99808.41;;;9.10;94.22
74372;BME280;62885;51.374;6.170;2023-04-24T05:23:50;99818.19;;;9.20;94.10
74372;BME280;62885;51.374;6.170;2023-04-24T05:26:15;99814.59;;;9.10;93.97
74372;BME280;62885;51.374;6.170;2023-04-24T05:28:41;99807.31;;;9.12;94.94
74372;BME280;62885;51.374;6.170;2023-04-24T05:31:06;99816.56;;;9.08;94.59
74372;BME280;62885;51.374;6.170;2023-04-24T05:33:32;99823.00;;;9.05;95.16
74372;BME280;62885;51.374;6.170;2023-04-24T05:35:57;99811.34;;;9.06;94.94
74372;BME280;62885;51.374;6.170;2023-04-24T05:38:22;99818.97;;;9.11;95.38
74372;BME280;62885;51.374;6.170;2023-04-24T05:40:48;99817.28;;;9.10;95.28
74372;BME280;62885;51.374;6.170;2023-04-24T05:43:13;99822.44;;;9.23;94.85
74372;BME280;62885;51.374;6.170;2023-04-24T05:45:38;99830.50;;;9.12;95.27
74372;BME280;62885;51.374;6.170;2023-04-24T05:48:04;99820.00;;;8.99;95.96
74372;BME280;62885;51.374;6.170;2023-04-24T05:50:30;99823.91;;;8.95;96.16
74372;BME280;62885;51.374;6.170;2023-04-24T05:52:56;99818.56;;;8.95;96.37
74372;BME280;62885;51.374;6.170;2023-04-24T05:55:24;99818.69;;;8.93;95.84
74372;BME280;62885;51.374;6.170;2023-04-24T05:57:49;99822.47;;;8.91;97.25
74372;BME280;62885;51.374;6.170;2023-04-24T06:00:15;99824.16;;;8.92;97.76
74372;BME280;62885;51.374;6.170;2023-04-24T06:02:41;99814.63;;;8.78;98.47
74372;BME280;62885;51.374;6.170;2023-04-24T06:05:06;99820.63;;;8.91;97.40
74372;BME280;62885;51.374;6.170;2023-04-24T06:07:33;99831.56;;;8.88;96.91
74372;BME280;62885;51.374;6.170;2023-04-24T06:09:58;99824.53;;;8.87;98.15
74372;BME280;62885;51.374;6.170;2023-04-24T06:12:24;99823.56;;;8.88;97.90
74372;BME280;62885;51.374;6.170;2023-04-24T06:14:51;99837.72;;;9.00;96.73
74372;BME280;62885;51.374;6.170;2023-04-24T06:17:16;99841.25;;;9.00;96.66
74372;BME280;62885;51.374;6.170;2023-04-24T06:19:41;99839.94;;;8.95;96.42
74372;BME280;62885;51.374;6.170;2023-04-24T06:22:07;99842.31;;;8.98;95.77
74372;BME280;62885;51.374;6.170;2023-04-24T06:24:34;99844.66;;;8.91;95.21
74372;BME280;62885;51.374;6.170;2023-04-24T06:26:59;99848.69;;;8.86;96.39
74372;BME280;62885;51.374;6.170;2023-04-24T06:29:26;99855.84;;;8.85;95.99
74372;BME280;62885;51.374;6.170;2023-04-24T06:31:52;99857.47;;;8.77;94.85
74372;BME280;62885;51.374;6.170;2023-04-24T06:34:17;99853.09;;;8.76;95.66
74372;BME280;62885;51.374;6.170;2023-04-24T06:36:42;99849.22;;;8.69;95.49
74372;BME280;62885;51.374;6.170;2023-04-24T06:39:08;99842.84;;;8.60;95.71
74372;BME280;62885;51.374;6.170;2023-04-24T06:41:34;99855.44;;;8.58;96.94
74372;BME280;62885;51.374;6.170;2023-04-24T06:43:59;99852.28;;;8.64;96.46
74372;BME280;62885;51.374;6.170;2023-04-24T06:46:25;99858.72;;;8.61;97.12
74372;BME280;62885;51.374;6.170;2023-04-24T06:48:55;99854.97;;;8.53;96.66
74372;BME280;62885;51.374;6.170;2023-04-24T06:51:24;99855.47;;;8.47;97.47
74372;BME280;62885;51.374;6.170;2023-04-24T06:53:51;99861.06;;;8.44;97.19
74372;BME280;62885;51.374;6.170;2023-04-24T06:56:17;99851.94;;;8.46;97.42
74372;BME280;62885;51.374;6.170;2023-04-24T06:58:42;99855.72;;;8.44;97.93
74372;BME280;62885;51.374;6.170;2023-04-24T07:01:08;99864.06;;;8.39;98.81
74372;BME280;62885;51.374;6.170;2023-04-24T07:03:33;99874.25;;;8.34;99.14
74372;BME280;62885;51.374;6.170;2023-04-24T07:05:59;99868.81;;;8.24;98.67
74372;BME280;62885;51.374;6.170;2023-04-24T07:08:24;99871.88;;;8.31;99.08
74372;BME280;62885;51.374;6.170;2023-04-24T07:10:50;99877.38;;;8.28;98.70
74372;BME280;62885;51.374;6.170;2023-04-24T07:13:16;99883.84;;;8.25;98.37
74372;BME280;62885;51.374;6.170;2023-04-24T07:15:42;99899.84;;;8.25;99.08
74372;BME280;62885;51.374;6.170;2023-04-24T07:18:08;99906.25;;;8.23;100.00
74372;BME280;62885;51.374;6.170;2023-04-24T07:20:33;99893.19;;;8.31;100.00
74372;BME280;62885;51.374;6.170;2023-04-24T07:22:59;99894.03;;;8.32;99.69
74372;BME280;62885;51.374;6.170;2023-04-24T07:25:24;99890.59;;;8.30;100.00
74372;BME280;62885;51.374;6.170;2023-04-24T07:27:50;99907.84;;;8.25;100.00
74372;BME280;62885;51.374;6.170;2023-04-24T07:30:15;99906.03;;;8.26;100.00
74372;BME280;62885;51.374;6.170;2023-04-24T07:32:41;99915.22;;;8.33;100.00
74372;BME280;62885;51.374;6.170;2023-04-24T07:35:06;99914.03;;;8.37;100.00
74372;BME280;62885;51.374;6.170;2023-04-24T07:37:32;99925.66;;;8.47;100.00
74372;BME280;62885;51.374;6.170;2023-04-24T07:39:57;99924.81;;;8.47;100.00
74372;BME280;62885;51.374;6.170;2023-04-24T07:42:23;99931.59;;;8.51;100.00
74372;BME280;62885;51.374;6.170;2023-04-24T07:44:48;99929.06;;;8.49;100.00
74372;BME280;62885;51.374;6.170;2023-04-24T07:47:14;99941.78;;;8.57;100.00
74372;BME280;62885;51.374;6.170;2023-04-24T07:49:42;99945.06;;;8.60;100.00
74372;BME280;62885;51.374;6.170;2023-04-24T07:52:08;99951.47;;;8.58;100.00
74372;BME280;62885;51.374;6.170;2023-04-24T07:54:33;99945.53;;;8.65;100.00
74372;BME280;62885;51.374;6.170;2023-04-24T07:56:59;99958.13;;;8.75;100.00
74372;BME280;62885;51.374;6.170;2023-04-24T07:59:25;99958.97;;;8.75;100.00
74372;BME280;62885;51.374;6.170;2023-04-24T08:01:51;99963.00;;;8.70;100.00
74372;BME280;62885;51.374;6.170;2023-04-24T08:04:16;99969.66;;;8.64;100.00
74372;BME280;62885;51.374;6.170;2023-04-24T08:06:43;99977.56;;;8.65;100.00
74372;BME280;62885;51.374;6.170;2023-04-24T08:09:08;99981.94;;;8.67;100.00
74372;BME280;62885;51.374;6.170;2023-04-24T08:11:33;99998.41;;;8.72;100.00
74372;BME280;62885;51.374;6.170;2023-04-24T08:13:59;100004.63;;;8.72;100.00
74372;BME280;62885;51.374;6.170;2023-04-24T08:16:24;100037.59;;;8.71;99.87
74372;BME280;62885;51.374;6.170;2023-04-24T08:18:50;100032.75;;;8.65;100.00
74372;BME280;62885;51.374;6.170;2023-04-24T08:21:16;100043.31;;;8.67;99.87
74372;BME280;62885;51.374;6.170;2023-04-24T08:23:44;100054.19;;;8.63;99.66
74372;BME280;62885;51.374;6.170;2023-04-24T08:26:09;100074.09;;;8.59;97.87
74372;BME280;62885;51.374;6.170;2023-04-24T08:28:36;100078.94;;;8.54;97.23
74372;BME280;62885;51.374;6.170;2023-04-24T08:31:01;100097.47;;;8.45;99.11
74372;BME280;62885;51.374;6.170;2023-04-24T08:33:27;100108.03;;;8.46;99.40
74372;BME280;62885;51.374;6.170;2023-04-24T08:35:52;100107.91;;;8.48;100.00
74372;BME280;62885;51.374;6.170;2023-04-24T08:38:18;100111.66;;;8.45;100.00
74372;BME280;62885;51.374;6.170;2023-04-24T08:40:43;100127.66;;;8.45;100.00
74372;BME280;62885;51.374;6.170;2023-04-24T08:43:12;100128.00;;;8.41;100.00
74372;BME280;62885;51.374;6.170;2023-04-24T08:45:37;100129.72;;;8.42;100.00
74372;BME280;62885;51.374;6.170;2023-04-24T08:48:04;100126.19;;;8.41;99.95
74372;BME280;62885;51.374;6.170;2023-04-24T08:50:29;100152.41;;;8.47;99.07
74372;BME280;62885;51.374;6.170;2023-04-24T08:52:57;100146.34;;;8.45;99.08
74372;BME280;62885;51.374;6.170;2023-04-24T08:55:23;100157.50;;;8.50;99.64
74372;BME280;62885;51.374;6.170;2023-04-24T08:57:51;100155.94;;;8.48;99.50
74372;BME280;62885;51.374;6.170;2023-04-24T09:00:18;100171.69;;;8.51;99.73
74372;BME280;62885;51.374;6.170;2023-04-24T09:02:47;100180.34;;;8.54;99.21
74372;BME280;62885;51.374;6.170;2023-04-24T09:05:14;100182.03;;;8.55;99.17
74372;BME280;62885;51.374;6.170;2023-04-24T09:07:42;100187.00;;;8.60;98.32
74372;BME280;62885;51.374;6.170;2023-04-24T09:10:10;100197.91;;;8.57;99.58
74372;BME280;62885;51.374;6.170;2023-04-24T09:12:36;100204.22;;;8.56;99.18
74372;BME280;62885;51.374;6.170;2023-04-24T09:15:02;100200.09;;;8.63;99.76
74372;BME280;62885;51.374;6.170;2023-04-24T09:17:32;100208.84;;;8.65;99.88
74372;BME280;62885;51.374;6.170;2023-04-24T09:19:58;100219.28;;;8.68;100.00
74372;BME280;62885;51.374;6.170;2023-04-24T09:22:23;100216.41;;;8.71;100.00
74372;BME280;62885;51.374;6.170;2023-04-24T09:24:59;100212.88;;;8.71;100.00
74372;BME280;62885;51.374;6.170;2023-04-24T09:27:28;100217.47;;;8.69;100.00
74372;BME280;62885;51.374;6.170;2023-04-24T09:29:57;100225.47;;;8.69;100.00
74372;BME280;62885;51.374;6.170;2023-04-24T09:32:23;100237.75;;;8.71;100.00
74372;BME280;62885;51.374;6.170;2023-04-24T09:35:14;100244.06;;;8.70;100.00
74372;BME280;62885;51.374;6.170;2023-04-24T09:37:42;100241.97;;;8.74;100.00
74372;BME280;62885;51.374;6.170;2023-04-24T09:40:12;100253.66;;;8.73;100.00
74372;BME280;62885;51.374;6.170;2023-04-24T09:42:39;100261.53;;;8.74;99.91
74372;BME280;62885;51.374;6.170;2023-04-24T09:45:09;100256.53;;;8.70;99.62
74372;BME280;62885;51.374;6.170;2023-04-24T09:47:35;100254.78;;;8.57;99.01
74372;BME280;62885;51.374;6.170;2023-04-24T09:50:09;100257.19;;;8.49;98.69
74372;BME280;62885;51.374;6.170;2023-04-24T09:52:34;100274.63;;;8.42;98.18
74372;BME280;62885;51.374;6.170;2023-04-24T09:55:00;100281.66;;;8.43;98.88
74372;BME280;62885;51.374;6.170;2023-04-24T09:57:25;100284.19;;;8.45;99.47
74372;BME280;62885;51.374;6.170;2023-04-24T09:59:53;100285.69;;;8.49;100.00
74372;BME280;62885;51.374;6.170;2023-04-24T10:02:21;100291.03;;;8.49;100.00
74372;BME280;62885;51.374;6.170;2023-04-24T10:04:56;100292.72;;;8.50;99.96
74372;BME280;62885;51.374;6.170;2023-04-24T10:07:26;100295.91;;;8.55;99.27
74372;BME280;62885;51.374;6.170;2023-04-24T10:09:51;100306.97;;;8.61;98.15
74372;BME280;62885;51.374;6.170;2023-04-24T10:12:17;100303.47;;;8.61;98.46
74372;BME280;62885;51.374;6.170;2023-04-24T10:14:43;100310.75;;;8.70;98.59
74372;BME280;62885;51.374;6.170;2023-04-24T10:17:10;100313.59;;;8.80;97.12
74372;BME280;62885;51.374;6.170;2023-04-24T10:19:36;100322.75;;;8.88;96.04
74372;BME280;62885;51.374;6.170;2023-04-24T10:22:03;100330.19;;;8.96;95.87
74372;BME280;62885;51.374;6.170;2023-04-24T10:24:29;100320.47;;;8.95;93.95
74372;BME280;62885;51.374;6.170;2023-04-24T10:26:55;100317.53;;;8.98;93.44
74372;BME280;62885;51.374;6.170;2023-04-24T10:29:21;100324.03;;;9.06;94.51
74372;BME280;62885;51.374;6.170;2023-04-24T10:31:47;100330.72;;;9.12;94.05
74372;BME280;62885;51.374;6.170;2023-04-24T10:34:15;100329.84;;;9.12;92.81
74372;BME280;62885;51.374;6.170;2023-04-24T10:36:44;100332.53;;;9.12;92.41
74372;BME280;62885;51.374;6.170;2023-04-24T10:39:12;100340.19;;;9.16;91.76
74372;BME280;62885;51.374;6.170;2023-04-24T10:41:40;100347.97;;;9.19;90.86
74372;BME280;62885;51.374;6.170;2023-04-24T10:44:09;100347.53;;;9.25;88.23
74372;BME280;62885;51.374;6.170;2023-04-24T10:46:38;100353.06;;;9.22;88.85
74372;BME280;62885;51.374;6.170;2023-04-24T10:49:07;100356.88;;;9.31;88.44
74372;BME280;62885;51.374;6.170;2023-04-24T10:54:28;100357.91;;;9.52;84.68
74372;BME280;62885;51.374;6.170;2023-04-24T10:59:47;100357.81;;;9.76;83.26
74372;BME280;62885;51.374;6.170;2023-04-24T11:02:15;100353.44;;;9.86;83.66
74372;BME280;62885;51.374;6.170;2023-04-24T11:04:41;100363.66;;;10.03;83.20
74372;BME280;62885;51.374;6.170;2023-04-24T11:07:13;100364.63;;;9.91;80.62
74372;BME280;62885;51.374;6.170;2023-04-24T11:09:38;100371.31;;;9.97;80.55
74372;BME280;62885;51.374;6.170;2023-04-24T11:12:08;100369.63;;;10.07;78.72
74372;BME280;62885;51.374;6.170;2023-04-24T11:17:35;100379.00;;;10.23;78.18
74372;BME280;62885;51.374;6.170;2023-04-24T11:20:07;100384.00;;;10.28;77.42
74372;BME280;62885;51.374;6.170;2023-04-24T11:22:35;100389.94;;;10.32;77.51
74372;BME280;62885;51.374;6.170;2023-04-24T11:25:02;100398.59;;;10.24;77.00
74372;BME280;62885;51.374;6.170;2023-04-24T11:27:39;100398.94;;;10.19;79.06
74372;BME280;62885;51.374;6.170;2023-04-24T11:30:05;100412.56;;;10.16;79.97
74372;BME280;62885;51.374;6.170;2023-04-24T11:32:41;100404.75;;;10.13;80.20
74372;BME280;62885;51.374;6.170;2023-04-24T11:35:17;100414.56;;;10.02;79.50
74372;BME280;62885;51.374;6.170;2023-04-24T11:37:45;100412.91;;;9.89;79.53
74372;BME280;62885;51.374;6.170;2023-04-24T11:40:12;100417.84;;;9.83;78.17
74372;BME280;62885;51.374;6.170;2023-04-24T11:42:45;100429.03;;;9.88;78.63
74372;BME280;62885;51.374;6.170;2023-04-24T11:47:44;100436.97;;;10.12;79.02
74372;BME280;62885;51.374;6.170;2023-04-24T11:50:12;100434.34;;;10.23;78.77
74372;BME280;62885;51.374;6.170;2023-04-24T11:52:42;100435.56;;;10.30;76.37
74372;BME280;62885;51.374;6.170;2023-04-24T11:55:22;100448.81;;;10.32;76.45
74372;BME280;62885;51.374;6.170;2023-04-24T11:57:50;100459.38;;;10.22;76.05
74372;BME280;62885;51.374;6.170;2023-04-24T12:02:42;100460.25;;;10.22;75.52
74372;BME280;62885;51.374;6.170;2023-04-24T12:05:07;100461.47;;;10.18;75.53
74372;BME280;62885;51.374;6.170;2023-04-24T12:07:41;100461.53;;;10.06;72.74
74372;BME280;62885;51.374;6.170;2023-04-24T12:10:08;100466.31;;;9.78;71.63
74372;BME280;62885;51.374;6.170;2023-04-24T12:12:34;100465.84;;;9.84;72.06
74372;BME280;62885;51.374;6.170;2023-04-24T12:15:06;100480.34;;;9.93;72.63
74372;BME280;62885;51.374;6.170;2023-04-24T12:17:33;100484.75;;;10.05;72.87
74372;BME280;62885;51.374;6.170;2023-04-24T12:20:04;100469.66;;;10.04;72.14
74372;BME280;62885;51.374;6.170;2023-04-24T12:22:46;100480.97;;;10.08;72.79
74372;BME280;62885;51.374;6.170;2023-04-24T12:25:12;100474.06;;;10.05;72.11
74372;BME280;62885;51.374;6.170;2023-04-24T12:27:38;100483.06;;;10.15;72.90
74372;BME280;62885;51.374;6.170;2023-04-24T12:30:05;100488.16;;;10.07;71.89
74372;BME280;62885;51.374;6.170;2023-04-24T12:32:31;100489.19;;;10.17;72.92
74372;BME280;62885;51.374;6.170;2023-04-24T12:34:56;100497.09;;;10.19;72.55
74372;BME280;62885;51.374;6.170;2023-04-24T12:37:24;100496.25;;;10.29;72.73
74372;BME280;62885;51.374;6.170;2023-04-24T12:40:07;100498.78;;;10.20;71.83
74372;BME280;62885;51.374;6.170;2023-04-24T12:42:34;100502.44;;;10.19;71.34
74372;BME280;62885;51.374;6.170;2023-04-24T12:45:05;100499.78;;;10.19;71.43
74372;BME280;62885;51.374;6.170;2023-04-24T12:47:32;100506.47;;;10.24;70.93
74372;BME280;62885;51.374;6.170;2023-04-24T12:49:57;100503.91;;;10.34;71.43
74372;BME280;62885;51.374;6.170;2023-04-24T12:52:23;100500.03;;;10.49;70.62
74372;BME280;62885;51.374;6.170;2023-04-24T12:54:53;100503.22;;;10.65;70.88
74372;BME280;62885;51.374;6.170;2023-04-24T12:57:19;100504.66;;;10.81;70.10
74372;BME280;62885;51.374;6.170;2023-04-24T12:59:44;100512.22;;;10.76;69.21
74372;BME280;62885;51.374;6.170;2023-04-24T13:02:11;100507.06;;;10.73;67.50
74372;BME280;62885;51.374;6.170;2023-04-24T13:04:36;100509.91;;;10.71;69.07
74372;BME280;62885;51.374;6.170;2023-04-24T13:07:02;100510.75;;;10.72;69.03
74372;BME280;62885;51.374;6.170;2023-04-24T13:09:27;100521.47;;;10.83;69.23
74372;BME280;62885;51.374;6.170;2023-04-24T13:11:54;100524.13;;;10.83;68.29